Time;durP1;ratioP1;P1;durP2;ratioP2;P2;SDS_P1;SDS_P2;PMS_P1;PMS_P2;Temp;Humidity;BMP_temperature;BMP_pressure;BME280_temperature;BME280_humidity;BME280_pressure;Samples;Min_cycle;Max_cycle;Signal;HPM_P1;HPM_P2
2022/05/17 00:02:03;;;;;;;10.53;5.63;;;14.20;76.30;;;;;;5050976;28;46421;-62
2022/05/17 00:04:29;;;;;;;10.63;5.90;;;14.30;76.40;;;;;;5051746;28;46516;-62
2022/05/17 00:06:54;;;;;;;10.27;5.87;;;14.20;76.20;;;;;;5050061;28;46505;-61
2022/05/17 00:09:20;;;;;;;11.77;6.00;;;14.20;76.30;;;;;;5048766;28;46436;-62
2022/05/17 00:11:47;;;;;;;9.40;5.50;;;14.30;76.40;;;;;;5050529;28;46402;-62
2022/05/17 00:14:14;;;;;;;11.80;6.87;;;14.30;76.30;;;;;;5048288;28;46322;-62
2022/05/17 00:16:41;;;;;;;14.17;6.77;;;14.30;76.20;;;;;;5051802;28;46136;-62
2022/05/17 00:19:08;;;;;;;13.30;6.10;;;14.20;76.40;;;;;;5046806;28;45799;-62
2022/05/17 00:21:34;;;;;;;11.27;6.40;;;14.20;76.70;;;;;;5049633;28;47810;-61
2022/05/17 00:24:00;;;;;;;12.60;6.60;;;14.30;76.80;;;;;;5047480;28;46437;-61
2022/05/17 00:26:26;;;;;;;10.27;6.30;;;14.20;77.00;;;;;;5047024;28;46395;-61
2022/05/17 00:28:52;;;;;;;10.63;6.03;;;14.20;77.00;;;;;;5052395;28;46456;-62
2022/05/17 00:31:18;;;;;;;12.20;6.17;;;14.10;76.90;;;;;;5058082;28;47756;-60
2022/05/17 00:33:43;;;;;;;13.97;6.70;;;14.10;77.00;;;;;;5052020;28;46440;-61
2022/05/17 00:36:09;;;;;;;15.10;6.87;;;14.10;77.00;;;;;;5055605;28;46449;-61
2022/05/17 00:38:35;;;;;;;12.97;6.23;;;14.10;76.90;;;;;;5052366;28;46121;-61
2022/05/17 00:41:00;;;;;;;8.23;5.70;;;14.10;76.90;;;;;;5051645;28;47233;-61
2022/05/17 00:46:21;;;;;;;10.90;6.30;;;14.10;76.80;;;;;;5048463;28;46432;-62
2022/05/17 00:48:47;;;;;;;11.43;5.77;;;14.10;76.80;;;;;;5053139;28;46302;-60
2022/05/17 00:51:13;;;;;;;10.10;6.40;;;14.10;76.80;;;;;;5050587;28;47078;-61
2022/05/17 00:53:39;;;;;;;12.27;5.93;;;14.00;76.70;;;;;;5050630;28;46454;-60
2022/05/17 00:56:12;;;;;;;15.30;5.73;;;14.00;76.90;;;;;;5050213;28;46500;-63
2022/05/17 00:58:46;;;;;;;13.90;7.17;;;14.00;77.00;;;;;;5044558;28;46407;-63
2022/05/17 01:01:23;;;;;;;10.50;6.30;;;13.90;77.00;;;;;;5050960;28;46557;-61
2022/05/17 01:03:54;;;;;;;11.67;5.90;;;13.90;76.90;;;;;;5044478;28;46199;-61
2022/05/17 01:06:21;;;;;;;18.23;7.40;;;13.90;77.00;;;;;;5047662;28;46446;-60
2022/05/17 01:08:47;;;;;;;13.03;7.03;;;13.90;77.00;;;;;;5046984;28;46397;-61
2022/05/17 01:11:13;;;;;;;12.43;5.63;;;13.90;77.00;;;;;;5051946;28;47118;-61
2022/05/17 01:16:25;;;;;;;12.03;6.07;;;13.90;77.00;;;;;;5047613;28;46410;-61
2022/05/17 01:18:52;;;;;;;13.57;6.60;;;13.90;77.10;;;;;;5051412;28;46470;-62
2022/05/17 01:21:17;;;;;;;10.70;6.40;;;13.80;77.30;;;;;;5056157;28;46410;-62
2022/05/17 01:23:43;;;;;;;12.20;6.70;;;13.80;77.50;;;;;;5056065;28;46207;-62
2022/05/17 01:26:13;;;;;;;12.90;7.20;;;13.80;77.60;;;;;;5051257;28;46388;-62
2022/05/17 01:28:38;;;;;;;12.80;7.47;;;13.80;77.50;;;;;;5056813;28;46501;-61
2022/05/17 01:31:05;;;;;;;17.63;7.40;;;13.70;77.50;;;;;;5048597;28;46980;-62
2022/05/17 01:33:33;;;;;;;15.57;7.90;;;13.70;77.70;;;;;;5051263;28;46402;-62
2022/05/17 01:36:00;;;;;;;22.40;8.00;;;13.70;77.80;;;;;;5050035;28;46421;-61
2022/05/17 01:38:27;;;;;;;13.03;7.10;;;13.70;77.90;;;;;;5048317;28;46381;-61
2022/05/17 01:40:52;;;;;;;17.13;7.17;;;13.60;78.00;;;;;;5054753;28;47042;-61
2022/05/17 01:43:18;;;;;;;11.37;6.80;;;13.50;78.20;;;;;;5043823;28;45796;-62
2022/05/17 01:45:44;;;;;;;18.73;6.80;;;13.50;78.40;;;;;;5049443;28;46331;-62
2022/05/17 01:48:10;;;;;;;11.40;7.37;;;13.40;78.50;;;;;;5066279;28;45930;-63
2022/05/17 01:50:36;;;;;;;13.27;6.90;;;13.40;78.60;;;;;;5050565;28;46611;-62
2022/05/17 01:53:02;;;;;;;10.83;6.43;;;13.40;78.60;;;;;;5049071;28;45903;-61
2022/05/17 01:55:28;;;;;;;13.47;7.90;;;13.30;78.80;;;;;;5053523;28;46407;-61
2022/05/17 01:57:53;;;;;;;14.63;7.80;;;13.30;78.80;;;;;;5048390;28;46338;-62
2022/05/17 02:00:23;;;;;;;16.90;7.90;;;13.30;78.80;;;;;;5051276;28;46515;-61
2022/05/17 02:02:50;;;;;;;14.87;7.63;;;13.20;78.80;;;;;;5048538;28;46388;-62
2022/05/17 02:05:21;;;;;;;14.53;8.90;;;13.20;78.80;;;;;;5048150;28;46346;-61
2022/05/17 02:07:50;;;;;;;13.93;7.87;;;13.20;78.90;;;;;;5048429;28;46374;-62
2022/05/17 02:10:16;;;;;;;18.23;8.57;;;13.20;79.00;;;;;;5047996;28;47171;-61
2022/05/17 02:12:42;;;;;;;14.60;7.77;;;13.20;79.40;;;;;;5044734;28;46263;-61
2022/05/17 02:15:08;;;;;;;23.30;8.60;;;13.10;79.90;;;;;;5049065;28;46358;-62
2022/05/17 02:17:35;;;;;;;16.83;7.97;;;13.00;79.70;;;;;;5048274;28;46456;-62
2022/05/17 02:20:02;;;;;;;21.07;8.47;;;13.00;79.70;;;;;;5049965;28;47228;-61
2022/05/17 02:22:27;;;;;;;21.00;9.40;;;13.00;79.70;;;;;;5047480;28;46479;-61
2022/05/17 02:24:53;;;;;;;14.77;9.27;;;13.00;79.70;;;;;;5044382;28;46346;-62
2022/05/17 02:27:19;;;;;;;14.40;8.33;;;12.90;79.70;;;;;;5045401;28;46441;-62
2022/05/17 02:29:44;;;;;;;16.97;8.80;;;12.90;79.70;;;;;;5045152;28;46596;-62
2022/05/17 02:32:11;;;;;;;18.50;8.93;;;12.90;79.60;;;;;;5046085;28;46520;-63
2022/05/17 02:34:37;;;;;;;13.43;9.30;;;12.90;79.70;;;;;;5046384;28;46469;-61
2022/05/17 02:37:06;;;;;;;22.33;10.50;;;12.80;79.60;;;;;;5045562;28;46714;-61
2022/05/17 02:39:31;;;;;;;18.80;9.83;;;12.80;79.50;;;;;;5047223;28;46640;-62
2022/05/17 02:41:57;;;;;;;20.13;11.00;;;12.80;79.60;;;;;;5044104;28;46078;-62
2022/05/17 02:44:23;;;;;;;19.60;11.27;;;12.80;79.50;;;;;;5050316;28;46490;-62
2022/05/17 02:46:49;;;;;;;19.87;10.80;;;12.80;79.60;;;;;;5049382;28;46668;-61
2022/05/17 02:49:15;;;;;;;19.27;11.10;;;12.80;79.50;;;;;;5052001;28;48008;-61
2022/05/17 02:51:41;;;;;;;17.10;10.50;;;12.80;79.50;;;;;;5049835;28;46355;-62
2022/05/17 02:54:10;;;;;;;18.63;10.47;;;12.80;79.50;;;;;;5043531;28;46367;-61
2022/05/17 02:56:36;;;;;;;16.93;9.40;;;12.80;79.60;;;;;;5050268;28;46497;-62
2022/05/17 02:59:02;;;;;;;19.23;8.93;;;12.80;79.50;;;;;;5044932;28;46573;-60
2022/05/17 03:01:28;;;;;;;19.50;10.20;;;12.80;79.60;;;;;;5052954;28;46680;-61
2022/05/17 03:03:53;;;;;;;23.40;10.97;;;12.80;79.50;;;;;;5052711;28;46460;-61
2022/05/17 03:06:19;;;;;;;21.80;10.90;;;12.80;79.50;;;;;;5055325;28;46428;-61
2022/05/17 03:08:44;;;;;;;29.80;11.60;;;12.80;80.80;;;;;;5050314;28;46475;-60
2022/05/17 03:11:12;;;;;;;28.53;10.80;;;12.70;79.50;;;;;;5058532;28;45767;-61
2022/05/17 03:13:37;;;;;;;17.93;11.87;;;12.70;79.40;;;;;;5049754;28;46395;-62
2022/05/17 03:16:04;;;;;;;20.90;11.87;;;12.70;79.50;;;;;;5053614;28;46452;-61
2022/05/17 03:18:30;;;;;;;18.03;11.43;;;12.70;79.40;;;;;;5054007;28;46818;-60
2022/05/17 03:20:55;;;;;;;17.00;10.20;;;12.70;79.40;;;;;;5049193;28;46379;-61
2022/05/17 03:23:21;;;;;;;22.83;12.17;;;12.60;80.50;;;;;;5055269;28;46496;-61
2022/05/17 03:25:46;;;;;;;22.63;12.60;;;12.60;79.40;;;;;;5047674;28;46387;-63
2022/05/17 03:28:13;;;;;;;19.20;12.30;;;12.60;80.00;;;;;;5051137;28;46350;-62
2022/05/17 03:30:39;;;;;;;22.70;11.97;;;12.60;80.20;;;;;;5050619;28;46358;-62
2022/05/17 03:33:05;;;;;;;24.47;12.80;;;12.60;80.50;;;;;;5046391;28;46421;-62
2022/05/17 03:35:31;;;;;;;19.80;11.30;;;12.50;80.80;;;;;;5052781;28;45921;-63
2022/05/17 03:37:56;;;;;;;18.17;10.37;;;12.60;81.00;;;;;;5045970;28;46462;-62
2022/05/17 03:40:22;;;;;;;16.07;10.47;;;12.60;80.80;;;;;;5051174;28;46475;-62
2022/05/17 03:42:48;;;;;;;18.13;10.33;;;12.60;80.60;;;;;;5056523;28;46400;-63
2022/05/17 03:45:14;;;;;;;19.17;10.90;;;12.60;80.40;;;;;;5060456;28;46529;-63
2022/05/17 03:47:40;;;;;;;19.90;11.17;;;12.70;80.30;;;;;;5053910;28;46460;-60
2022/05/17 03:50:07;;;;;;;17.17;10.17;;;12.70;80.00;;;;;;5056938;28;46318;-63
2022/05/17 03:52:32;;;;;;;24.17;11.80;;;12.70;79.90;;;;;;5052904;28;46447;-63
2022/05/17 03:55:00;;;;;;;21.80;11.33;;;12.70;79.80;;;;;;5053341;28;46633;-63
2022/05/17 03:57:27;;;;;;;22.47;12.37;;;12.70;79.70;;;;;;5054620;28;46429;-62
2022/05/17 03:59:54;;;;;;;19.07;11.27;;;12.80;79.80;;;;;;5047812;28;46713;-63
2022/05/17 04:02:20;;;;;;;20.03;11.70;;;12.70;79.60;;;;;;5055930;28;46318;-63
2022/05/17 04:04:46;;;;;;;20.73;11.13;;;12.80;79.50;;;;;;5053213;28;46378;-62
2022/05/17 04:07:12;;;;;;;19.43;11.47;;;12.90;79.70;;;;;;5051037;28;46450;-63
2022/05/17 04:09:38;;;;;;;20.53;13.23;;;12.90;79.60;;;;;;5054251;28;46401;-62
2022/05/17 04:12:04;;;;;;;22.47;12.33;;;12.90;79.60;;;;;;5045499;28;46400;-63
2022/05/17 04:14:30;;;;;;;19.00;11.37;;;12.90;79.80;;;;;;5050509;28;46368;-63
2022/05/17 04:16:56;;;;;;;22.90;12.03;;;13.00;79.80;;;;;;5058462;28;45998;-63
2022/05/17 04:19:22;;;;;;;13.47;9.63;;;13.10;80.50;;;;;;5050549;28;46413;-62
2022/05/17 04:21:50;;;;;;;17.37;10.97;;;13.10;79.90;;;;;;5053577;28;46433;-63
2022/05/17 04:24:16;;;;;;;17.63;9.90;;;13.10;80.00;;;;;;5059268;28;45981;-63
2022/05/17 04:26:42;;;;;;;17.30;9.47;;;13.20;80.20;;;;;;5049336;28;46295;-62
2022/05/17 04:29:08;;;;;;;15.63;9.63;;;13.20;79.90;;;;;;5054667;28;46604;-62
2022/05/17 04:31:35;;;;;;;28.50;10.80;;;13.30;80.00;;;;;;5049607;28;45777;-63
2022/05/17 04:34:02;;;;;;;17.27;10.60;;;13.40;80.10;;;;;;5056243;28;46291;-62
2022/05/17 04:36:28;;;;;;;16.13;9.53;;;13.50;80.20;;;;;;5050807;28;48159;-62
2022/05/17 04:38:54;;;;;;;15.93;10.20;;;13.60;80.30;;;;;;5050623;28;46342;-63
2022/05/17 04:41:20;;;;;;;17.80;10.50;;;13.70;80.40;;;;;;5053232;28;46375;-62
2022/05/17 04:43:46;;;;;;;15.27;10.00;;;13.90;80.40;;;;;;5049469;28;46477;-62
2022/05/17 04:46:12;;;;;;;20.70;8.90;;;14.00;79.80;;;;;;5049870;28;46386;-61
2022/05/17 04:48:38;;;;;;;16.40;10.20;;;14.20;79.70;;;;;;5046356;28;46242;-62
2022/05/17 04:51:12;;;;;;;10.53;7.00;;;14.40;79.40;;;;;;5054260;28;46414;-62
2022/05/17 04:53:39;;;;;;;9.13;5.60;;;15.50;80.20;;;;;;5048585;28;46713;-62
2022/05/17 04:56:06;;;;;;;13.53;4.67;;;17.10;79.30;;;;;;5051594;28;46507;-62
2022/05/17 04:58:33;;;;;;;7.00;4.43;;;18.50;75.50;;;;;;5049232;28;46404;-63
2022/05/17 05:00:59;;;;;;;13.90;5.77;;;19.80;71.90;;;;;;5051059;28;46491;-62
2022/05/17 05:03:25;;;;;;;6.70;4.43;;;20.90;68.60;;;;;;5052496;28;46118;-62
2022/05/17 05:05:52;;;;;;;7.03;3.83;;;21.80;65.90;;;;;;5047072;28;46276;-62
2022/05/17 05:08:17;;;;;;;6.47;3.60;;;22.70;63.30;;;;;;5053554;28;46323;-63
2022/05/17 05:10:45;;;;;;;7.63;4.47;;;23.50;62.40;;;;;;5047618;28;46334;-62
2022/05/17 05:13:21;;;;;;;7.17;4.20;;;24.10;59.10;;;;;;5052400;28;46384;-64
2022/05/17 05:15:47;;;;;;;6.30;4.10;;;24.70;56.90;;;;;;5047176;28;46477;-63
2022/05/17 05:18:14;;;;;;;10.43;4.83;;;25.30;54.70;;;;;;5049942;28;46491;-63
2022/05/17 05:20:40;;;;;;;10.00;3.97;;;25.90;52.80;;;;;;5048867;28;46329;-62
2022/05/17 05:23:07;;;;;;;9.50;3.70;;;26.00;51.30;;;;;;5048232;28;46661;-63
2022/05/17 05:25:33;;;;;;;11.50;4.33;;;26.30;49.60;;;;;;5051155;28;47208;-62
2022/05/17 05:27:58;;;;;;;8.80;4.23;;;26.50;48.40;;;;;;5043984;28;45840;-62
2022/05/17 05:30:24;;;;;;;6.03;3.73;;;26.90;46.20;;;;;;5050660;28;46303;-61
2022/05/17 05:32:50;;;;;;;9.27;4.60;;;27.30;44.10;;;;;;5054896;28;46548;-61
2022/05/17 05:35:20;;;;;;;11.93;4.13;;;27.50;42.40;;;;;;5052976;28;46365;-61
2022/05/17 05:37:46;;;;;;;6.63;4.20;;;27.80;40.60;;;;;;5050285;28;46586;-61
2022/05/17 05:40:12;;;;;;;9.70;4.30;;;28.00;39.50;;;;;;5055110;28;46391;-61
2022/05/17 05:42:39;;;;;;;12.63;4.07;;;28.40;37.70;;;;;;5046715;28;46378;-62
2022/05/17 05:45:07;;;;;;;6.63;3.60;;;28.60;36.70;;;;;;5052793;28;46497;-60
2022/05/17 05:47:32;;;;;;;6.17;3.57;;;28.80;35.50;;;;;;5048921;28;46350;-61
2022/05/17 05:49:58;;;;;;;8.93;4.10;;;28.80;34.70;;;;;;5058091;28;46247;-62
2022/05/17 05:52:24;;;;;;;8.63;3.60;;;28.70;34.40;;;;;;5049671;28;46398;-62
2022/05/17 05:54:49;;;;;;;10.50;4.13;;;29.00;33.80;;;;;;5045832;28;48380;-62
2022/05/17 05:57:15;;;;;;;8.80;3.53;;;28.90;33.30;;;;;;5050901;28;46519;-62
2022/05/17 05:59:41;;;;;;;6.30;4.13;;;29.10;32.60;;;;;;5047001;28;46239;-61
2022/05/17 06:02:08;;;;;;;8.27;4.10;;;29.20;31.90;;;;;;5048334;28;46468;-62
2022/05/17 06:04:33;;;;;;;7.07;3.77;;;29.30;31.30;;;;;;5049639;28;46338;-61
2022/05/17 06:06:59;;;;;;;6.53;3.43;;;29.20;30.70;;;;;;5047822;28;45817;-61
2022/05/17 06:09:26;;;;;;;7.53;3.70;;;29.00;30.80;;;;;;5052189;28;46455;-61
2022/05/17 06:11:52;;;;;;;9.00;3.70;;;28.50;30.70;;;;;;5055481;28;46794;-61
2022/05/17 06:14:20;;;;;;;9.73;4.40;;;27.80;32.80;;;;;;5055796;28;46906;-61
2022/05/17 06:16:46;;;;;;;6.87;3.57;;;26.70;36.90;;;;;;5050554;28;46561;-61
2022/05/17 06:19:12;;;;;;;11.30;3.90;;;25.70;39.80;;;;;;5055303;28;46287;-61
2022/05/17 06:21:38;;;;;;;7.27;3.50;;;25.00;42.30;;;;;;5050310;28;46304;-61
2022/05/17 06:24:05;;;;;;;10.47;3.80;;;24.40;44.10;;;;;;5053603;28;46959;-61
2022/05/17 06:26:30;;;;;;;7.03;4.10;;;24.10;44.70;;;;;;5051625;28;46447;-61
2022/05/17 06:28:56;;;;;;;8.37;4.37;;;23.90;44.70;;;;;;5048270;28;46361;-61
2022/05/17 06:31:22;;;;;;;10.23;4.30;;;23.50;44.90;;;;;;5054459;28;46589;-61
2022/05/17 06:33:48;;;;;;;8.63;4.47;;;23.20;45.20;;;;;;5046550;28;46382;-63
2022/05/17 06:36:14;;;;;;;5.43;4.20;;;22.90;46.00;;;;;;5050248;28;46447;-62
2022/05/17 06:38:39;;;;;;;6.30;4.37;;;22.80;46.40;;;;;;5050941;28;46386;-62
2022/05/17 06:41:05;;;;;;;7.77;4.57;;;22.60;47.20;;;;;;5046015;28;46385;-62
2022/05/17 06:43:34;;;;;;;9.30;4.73;;;22.50;48.00;;;;;;5056356;28;46366;-62
2022/05/17 06:46:03;;;;;;;8.90;4.70;;;22.30;48.40;;;;;;5061183;28;46416;-62
2022/05/17 06:48:30;;;;;;;6.87;4.57;;;22.30;48.20;;;;;;5052051;28;46458;-62
2022/05/17 06:51:07;;;;;;;8.73;4.53;;;22.20;48.60;;;;;;5054731;28;46377;-62
2022/05/17 06:53:33;;;;;;;8.63;4.87;;;22.00;48.70;;;;;;5052827;28;47310;-61
2022/05/17 06:55:59;;;;;;;13.17;5.37;;;21.80;48.80;;;;;;5056351;28;46259;-61
2022/05/17 06:58:28;;;;;;;12.40;5.53;;;21.60;49.10;;;;;;5055973;28;46434;-62
2022/05/17 07:00:55;;;;;;;12.43;4.50;;;21.70;48.30;;;;;;5049250;28;46541;-62
2022/05/17 07:03:20;;;;;;;13.70;6.10;;;21.80;47.90;;;;;;5057233;28;46116;-61
2022/05/17 07:05:46;;;;;;;14.20;6.57;;;21.90;47.90;;;;;;5049216;28;46619;-61
2022/05/17 07:08:11;;;;;;;16.63;6.13;;;22.00;47.40;;;;;;5056797;28;46354;-61
2022/05/17 07:13:21;;;;;;;12.00;7.30;;;22.20;46.40;;;;;;5053284;28;46167;-62
2022/05/17 07:15:49;;;;;;;13.70;7.70;;;22.10;46.50;;;;;;5052605;28;46371;-62
2022/05/17 07:18:18;;;;;;;11.30;7.67;;;21.90;46.70;;;;;;5051577;28;46466;-63
2022/05/17 07:20:44;;;;;;;12.30;8.97;;;22.10;46.40;;;;;;5055844;28;46459;-61
2022/05/17 07:23:10;;;;;;;13.97;8.07;;;22.10;46.60;;;;;;5046397;28;46445;-62
2022/05/17 07:25:40;;;;;;;11.20;7.80;;;22.00;46.60;;;;;;5057373;28;46254;-62
2022/05/17 07:28:06;;;;;;;10.73;6.60;;;21.90;46.30;;;;;;5048013;28;46374;-61
2022/05/17 07:30:32;;;;;;;15.73;6.50;;;22.20;46.10;;;;;;5054470;28;46957;-62
2022/05/17 07:32:58;;;;;;;11.43;5.77;;;22.50;45.90;;;;;;5050845;28;46472;-62
2022/05/17 07:35:23;;;;;;;15.63;7.63;;;22.80;45.10;;;;;;5049524;28;46109;-62
2022/05/17 07:37:49;;;;;;;13.50;7.00;;;22.40;45.40;;;;;;5053075;28;46497;-62
2022/05/17 07:40:15;;;;;;;15.70;7.90;;;21.70;45.80;;;;;;5047747;28;46133;-61
2022/05/17 07:42:40;;;;;;;14.70;6.70;;;21.10;47.20;;;;;;5054324;28;47440;-61
2022/05/17 07:45:10;;;;;;;14.63;6.60;;;21.10;47.70;;;;;;5048153;28;46368;-62
2022/05/17 07:47:36;;;;;;;11.13;6.83;;;21.30;47.80;;;;;;5054007;28;46399;-62
2022/05/17 07:50:03;;;;;;;12.00;7.90;;;21.90;46.50;;;;;;5050827;28;46362;-62
2022/05/17 07:52:29;;;;;;;15.07;7.53;;;22.40;45.50;;;;;;5049508;28;46530;-61
2022/05/17 07:54:54;;;;;;;8.70;5.77;;;22.60;44.80;;;;;;5050452;28;46436;-62
2022/05/17 07:57:21;;;;;;;10.77;6.47;;;22.10;44.20;;;;;;5045986;28;46369;-62
2022/05/17 07:59:47;;;;;;;11.67;7.03;;;21.70;45.40;;;;;;5054000;28;46028;-61
2022/05/17 08:02:13;;;;;;;11.60;6.53;;;21.50;45.70;;;;;;5059894;28;46851;-61
2022/05/17 08:04:38;;;;;;;10.03;6.37;;;21.60;45.70;;;;;;5052107;28;46346;-62
2022/05/17 08:07:05;;;;;;;9.83;6.13;;;22.00;45.50;;;;;;5054769;28;46219;-62
2022/05/17 08:09:30;;;;;;;12.90;5.90;;;22.50;44.80;;;;;;5052480;28;47060;-61
2022/05/17 08:11:56;;;;;;;14.93;6.20;;;22.60;45.40;;;;;;5050378;28;46374;-62
2022/05/17 08:14:22;;;;;;;8.30;5.80;;;23.00;43.60;;;;;;5055309;28;46374;-62
2022/05/17 08:16:48;;;;;;;13.33;5.43;;;23.40;42.30;;;;;;5046587;28;46459;-61
2022/05/17 08:19:14;;;;;;;12.80;5.50;;;23.60;41.80;;;;;;5050811;28;46373;-62
2022/05/17 08:21:40;;;;;;;13.80;6.63;;;23.20;42.00;;;;;;5047695;28;47949;-61
2022/05/17 08:24:06;;;;;;;11.60;7.10;;;23.00;42.70;;;;;;5046350;28;46403;-61
2022/05/17 08:29:16;;;;;;;10.40;6.40;;;23.20;43.10;;;;;;5044120;28;46876;-61
2022/05/17 08:31:42;;;;;;;11.30;6.20;;;24.00;42.40;;;;;;5050973;28;47063;-62
2022/05/17 08:34:08;;;;;;;13.27;6.03;;;24.60;40.90;;;;;;5052048;28;46636;-62
2022/05/17 08:36:34;;;;;;;11.60;6.10;;;24.60;40.50;;;;;;5055319;28;46388;-62
2022/05/17 08:39:01;;;;;;;11.90;6.03;;;24.40;40.50;;;;;;5053170;28;46422;-61
2022/05/17 08:41:36;;;;;;;8.83;5.60;;;23.50;41.70;;;;;;5057098;28;46671;-62
2022/05/17 08:44:12;;;;;;;11.17;6.10;;;22.50;41.20;;;;;;5052249;28;46433;-62
2022/05/17 08:46:56;;;;;;;12.80;6.23;;;21.80;42.70;;;;;;5054953;28;46361;-61
2022/05/17 08:49:57;;;;;;;12.33;5.70;;;21.90;43.70;;;;;;5052582;28;46476;-61
2022/05/17 08:52:25;;;;;;;9.10;5.53;;;22.40;44.50;;;;;;5054885;28;46430;-62
2022/05/17 08:54:57;;;;;;;11.67;5.63;;;23.20;42.70;;;;;;5055722;28;46422;-61
2022/05/17 08:57:33;;;;;;;7.63;4.30;;;23.80;41.50;;;;;;5048819;28;46303;-62
2022/05/17 09:00:05;;;;;;;14.83;5.00;;;23.80;40.30;;;;;;5053412;28;46365;-62
2022/05/17 09:02:45;;;;;;;14.27;4.90;;;23.30;40.20;;;;;;5048315;28;47793;-62
2022/05/17 09:05:29;;;;;;;8.37;4.90;;;22.80;40.90;;;;;;5052681;28;46726;-61
2022/05/17 09:08:22;;;;;;;16.60;5.60;;;22.80;41.50;;;;;;5047026;28;46421;-61
2022/05/17 09:10:53;;;;;;;10.00;5.00;;;23.20;40.90;;;;;;5052982;28;46492;-61
2022/05/17 09:13:36;;;;;;;6.40;4.20;;;23.40;40.70;;;;;;5046900;28;46401;-61
2022/05/17 09:16:02;;;;;;;8.47;4.57;;;23.40;40.10;;;;;;5054122;28;46361;-63
2022/05/17 09:18:30;;;;;;;10.10;5.00;;;23.60;40.30;;;;;;5047532;28;46407;-62
2022/05/17 09:20:56;;;;;;;8.70;4.90;;;23.40;40.00;;;;;;5056710;28;46310;-63
2022/05/17 09:23:21;;;;;;;9.23;4.97;;;23.40;40.00;;;;;;5049796;28;46453;-62
2022/05/17 09:26:05;;;;;;;16.60;4.77;;;23.60;40.00;;;;;;5053760;28;46294;-62
2022/05/17 09:28:54;;;;;;;8.90;4.20;;;23.50;39.60;;;;;;5048880;28;46450;-62
2022/05/17 09:31:23;;;;;;;7.03;3.80;;;23.50;38.80;;;;;;5052523;28;46499;-64
2022/05/17 09:33:50;;;;;;;8.53;3.73;;;23.50;38.80;;;;;;5047205;28;47435;-63
2022/05/17 09:36:30;;;;;;;9.90;3.40;;;23.70;38.30;;;;;;5049648;28;46441;-62
2022/05/17 09:38:59;;;;;;;7.03;3.93;;;23.50;38.20;;;;;;5047570;28;46505;-63
2022/05/17 09:41:34;;;;;;;6.10;3.90;;;23.40;38.40;;;;;;5051995;28;46502;-62
2022/05/17 09:44:14;;;;;;;9.30;3.50;;;23.50;38.60;;;;;;5047251;28;47218;-62
2022/05/17 09:46:46;;;;;;;10.20;3.97;;;23.40;38.60;;;;;;5050440;28;46376;-62
2022/05/17 09:52:35;;;;;;;6.70;3.30;;;23.60;38.40;;;;;;5049194;28;46525;-60
2022/05/17 09:55:07;;;;;;;7.83;3.67;;;24.00;37.70;;;;;;5051114;28;47105;-61
2022/05/17 09:57:33;;;;;;;7.40;3.57;;;24.40;38.10;;;;;;5045531;28;46468;-63
2022/05/17 10:00:12;;;;;;;5.23;3.50;;;24.60;38.50;;;;;;5053052;28;46452;-62
2022/05/17 10:02:40;;;;;;;6.10;3.57;;;24.80;36.80;;;;;;5045314;28;45843;-62
2022/05/17 10:05:29;;;;;;;8.40;3.73;;;25.00;36.40;;;;;;5053651;28;46411;-62
2022/05/17 10:08:03;;;;;;;5.00;3.50;;;24.70;33.90;;;;;;5046864;28;46413;-62
2022/05/17 10:10:37;;;;;;;6.20;3.67;;;24.20;35.10;;;;;;5051009;28;46393;-62
2022/05/17 10:13:11;;;;;;;8.17;3.40;;;24.30;35.40;;;;;;5047097;28;46449;-62
2022/05/17 10:15:41;;;;;;;5.93;3.47;;;24.50;35.70;;;;;;5049728;28;46571;-62
2022/05/17 10:18:19;;;;;;;10.10;3.40;;;24.30;35.50;;;;;;5053613;28;46384;-62
2022/05/17 10:20:48;;;;;;;8.10;3.70;;;24.40;35.90;;;;;;5054803;28;46467;-63
2022/05/17 10:23:22;;;;;;;6.97;3.40;;;24.70;35.70;;;;;;5053131;28;46523;-62
2022/05/17 10:25:53;;;;;;;7.30;3.10;;;24.90;34.40;;;;;;5048864;28;47058;-63
2022/05/17 10:28:56;;;;;;;5.67;3.20;;;25.10;33.40;;;;;;5054532;28;46384;-60
2022/05/17 10:31:44;;;;;;;11.43;3.47;;;25.20;33.60;;;;;;5060286;28;46358;-62
2022/05/17 10:34:37;;;;;;;16.53;3.83;;;25.30;32.90;;;;;;5051838;28;46492;-62
2022/05/17 10:37:09;;;;;;;7.83;3.10;;;25.60;31.60;;;;;;5059187;28;47162;-62
2022/05/17 10:39:55;;;;;;;4.23;2.83;;;25.60;31.60;;;;;;5047152;28;46425;-62
2022/05/17 10:42:21;;;;;;;5.43;3.07;;;25.80;30.80;;;;;;5057330;28;46307;-62
2022/05/17 10:44:53;;;;;;;6.43;3.17;;;25.70;30.90;;;;;;5048326;28;46235;-63
2022/05/17 10:47:40;;;;;;;6.40;3.33;;;25.70;30.90;;;;;;5053315;28;46731;-63
2022/05/17 10:50:17;;;;;;;9.13;3.10;;;25.50;30.60;;;;;;5051748;28;46287;-62
2022/05/17 10:52:52;;;;;;;5.27;3.40;;;25.50;30.80;;;;;;5049481;28;46652;-63
2022/05/17 10:55:24;;;;;;;5.83;3.03;;;25.30;31.00;;;;;;5052239;28;45844;-62
2022/05/17 10:58:20;;;;;;;8.40;3.50;;;25.70;30.90;;;;;;5053046;28;47832;-62
2022/05/17 11:00:54;;;;;;;7.70;3.70;;;25.30;30.90;;;;;;5052211;28;46294;-63
2022/05/17 11:03:35;;;;;;;5.40;2.83;;;24.90;31.20;;;;;;5060920;28;46339;-63
2022/05/17 11:06:08;;;;;;;6.60;3.37;;;24.00;30.90;;;;;;5055065;28;45876;-62
2022/05/17 11:09:07;;;;;;;5.73;2.90;;;23.40;31.70;;;;;;5057421;28;47194;-63
2022/05/17 11:11:38;;;;;;;9.83;3.33;;;23.00;32.10;;;;;;5056660;28;46358;-61
2022/05/17 11:14:17;;;;;;;8.47;2.77;;;22.90;32.50;;;;;;5054668;28;46374;-62
2022/05/17 11:17:01;;;;;;;7.43;3.10;;;23.20;32.20;;;;;;5056733;28;46562;-63
2022/05/17 11:19:31;;;;;;;4.30;2.47;;;23.60;31.60;;;;;;5053234;28;46362;-62
2022/05/17 11:22:24;;;;;;;8.27;3.03;;;23.60;30.60;;;;;;5058383;28;46307;-62
2022/05/17 11:24:59;;;;;;;4.13;2.20;;;23.70;30.00;;;;;;5050643;28;46321;-62
2022/05/17 11:27:49;;;;;;;7.27;3.13;;;23.40;28.90;;;;;;5055014;28;46654;-62
2022/05/17 11:30:39;;;;;;;5.90;2.70;;;23.40;30.00;;;;;;5049673;28;46357;-62
2022/05/17 11:33:07;;;;;;;3.67;2.10;;;23.70;30.30;;;;;;5053673;28;46464;-61
2022/05/17 11:35:33;;;;;;;7.60;3.33;;;24.20;30.70;;;;;;5051931;28;46506;-61
2022/05/17 11:37:59;;;;;;;9.47;3.03;;;24.50;30.80;;;;;;5051956;28;46319;-59
2022/05/17 11:40:46;;;;;;;8.00;2.30;;;24.70;30.00;;;;;;5054568;28;46446;-60
2022/05/17 11:45:57;;;;;;;5.47;2.70;;;24.40;29.20;;;;;;5051780;28;46483;-61
2022/05/17 11:48:45;;;;;;;6.70;2.73;;;24.20;28.70;;;;;;5057676;28;45806;-61
2022/05/17 11:51:11;;;;;;;5.87;3.00;;;24.20;27.70;;;;;;5051821;28;47293;-61
2022/05/17 11:53:44;;;;;;;5.93;2.50;;;24.20;27.50;;;;;;5055191;28;46290;-60
2022/05/17 11:56:24;;;;;;;9.13;2.80;;;24.20;26.90;;;;;;5051447;28;46323;-59
2022/05/17 11:59:13;;;;;;;6.87;2.70;;;24.20;27.00;;;;;;5053865;28;46606;-62
2022/05/17 12:01:39;;;;;;;4.97;2.70;;;23.70;27.00;;;;;;5047820;28;46437;-60
2022/05/17 12:04:15;;;;;;;6.30;3.00;;;23.40;27.60;;;;;;5051376;27;46386;-60
2022/05/17 12:06:53;;;;;;;7.50;2.63;;;23.40;28.10;;;;;;5052721;28;46388;-60
2022/05/17 12:09:26;;;;;;;6.00;2.97;;;23.70;27.90;;;;;;5051970;28;46500;-63
2022/05/17 12:12:29;;;;;;;6.40;3.57;;;23.80;28.20;;;;;;5052821;28;46301;-59
2022/05/17 12:14:57;;;;;;;10.00;3.07;;;24.00;28.60;;;;;;5051142;28;45859;-60
2022/05/17 12:17:28;;;;;;;5.90;2.80;;;24.00;28.30;;;;;;5048794;28;46378;-59
2022/05/17 12:20:10;;;;;;;6.90;2.60;;;24.00;27.70;;;;;;5048388;28;46562;-60
2022/05/17 12:23:05;;;;;;;13.53;2.57;;;24.30;28.20;;;;;;5053723;28;46440;-60
2022/05/17 12:25:41;;;;;;;11.00;2.60;;;24.40;27.30;;;;;;5046575;28;46500;-60
2022/05/17 12:28:18;;;;;;;4.50;2.20;;;24.40;27.50;;;;;;5056283;28;45804;-60
2022/05/17 12:30:59;;;;;;;8.40;2.30;;;24.50;27.70;;;;;;5048613;28;46486;-59
2022/05/17 12:33:25;;;;;;;4.40;2.07;;;24.40;26.70;;;;;;5053427;28;47008;-60
2022/05/17 12:35:53;;;;;;;5.70;2.80;;;24.30;26.30;;;;;;5047485;28;46391;-59
2022/05/17 12:44:07;;;;;;;7.53;2.67;;;24.50;27.10;;;;;;5052327;28;46406;-60
2022/05/17 12:46:36;;;;;;;4.10;2.10;;;24.60;27.80;;;;;;5055717;28;46455;-61
2022/05/17 12:49:15;;;;;;;10.33;2.60;;;24.40;27.00;;;;;;5052488;28;46427;-60
2022/05/17 12:51:41;;;;;;;6.53;2.00;;;24.40;26.80;;;;;;5051370;28;46369;-60
2022/05/17 12:54:18;;;;;;;4.00;2.13;;;24.30;25.50;;;;;;5049516;28;46941;-60
2022/05/17 12:56:43;;;;;;;4.53;2.10;;;24.20;25.40;;;;;;5053607;28;46519;-60
2022/05/17 12:59:11;;;;;;;5.37;2.47;;;24.40;26.30;;;;;;5050367;28;46517;-60
2022/05/17 13:01:52;;;;;;;5.77;2.20;;;24.50;26.20;;;;;;5051678;28;46379;-60
2022/05/17 13:04:31;;;;;;;6.30;2.30;;;24.70;25.70;;;;;;5054996;28;48183;-60
2022/05/17 13:07:16;;;;;;;7.63;2.30;;;24.60;25.70;;;;;;5049966;28;46295;-59
2022/05/17 13:10:04;;;;;;;6.67;2.63;;;24.50;25.60;;;;;;5052043;28;46375;-59
2022/05/17 13:12:35;;;;;;;6.90;2.40;;;24.60;25.70;;;;;;5048506;28;46429;-60
2022/05/17 13:15:06;;;;;;;6.30;2.13;;;24.60;25.70;;;;;;5049147;28;46325;-58
2022/05/17 13:17:36;;;;;;;6.30;2.40;;;24.60;25.70;;;;;;5053339;28;46359;-60